createdAt,value
2024-03-08T00:00:16.079Z,98361.42
2024-03-08T00:02:45.182Z,98365.52
2024-03-08T00:05:13.406Z,98366.01
2024-03-08T00:07:41.515Z,98364.77
2024-03-08T00:10:13.327Z,98367.28
2024-03-08T00:12:46.152Z,98367.27
2024-03-08T00:15:19.533Z,98369.63
2024-03-08T00:17:48.743Z,98372.70
2024-03-08T00:20:19.727Z,98369.99
2024-03-08T00:22:47.703Z,98371.53
2024-03-08T00:25:14.969Z,98368.46
2024-03-08T00:27:45.704Z,98369.34
2024-03-08T00:30:14.871Z,98367.80
2024-03-08T00:32:42.643Z,98366.48
2024-03-08T00:35:10.277Z,98369.97
2024-03-08T00:37:37.587Z,98365.28
2024-03-08T00:40:06.070Z,98362.91
2024-03-08T00:42:34.920Z,98361.69
2024-03-08T00:45:02.783Z,98363.76
2024-03-08T00:47:30.406Z,98359.16
2024-03-08T00:49:58.298Z,98357.25
2024-03-08T00:52:25.928Z,98358.40
2024-03-08T00:54:53.190Z,98358.84
2024-03-08T00:57:20.635Z,98356.10
2024-03-08T00:59:48.597Z,98351.98
2024-03-08T01:02:16.498Z,98353.30
2024-03-08T01:04:43.704Z,98351.60
2024-03-08T01:07:11.038Z,98350.39
2024-03-08T01:09:38.285Z,98350.71
2024-03-08T01:12:06.674Z,98351.52
2024-03-08T01:14:34.604Z,98347.92
2024-03-08T01:17:01.995Z,98344.48
2024-03-08T01:19:29.297Z,98339.54
2024-03-08T01:21:58.905Z,98339.88
2024-03-08T01:24:26.770Z,98336.96
2024-03-08T01:26:54.030Z,98336.25
2024-03-08T01:29:21.217Z,98336.07
2024-03-08T01:31:48.431Z,98334.02
2024-03-08T01:34:15.548Z,98335.51
2024-03-08T01:36:42.841Z,98334.48
2024-03-08T01:39:11.071Z,98333.29
2024-03-08T01:41:38.518Z,98326.83
2024-03-08T01:44:08.693Z,98325.10
2024-03-08T01:46:36.961Z,98322.98
2024-03-08T01:49:04.958Z,98321.39
2024-03-08T01:51:32.740Z,98317.77
2024-03-08T01:54:02.721Z,98316.02
2024-03-08T01:56:33.348Z,98314.13
2024-03-08T01:59:01.216Z,98314.06
2024-03-08T02:04:23.468Z,98304.94
2024-03-08T02:06:51.381Z,98304.58
2024-03-08T02:09:18.795Z,98303.56
2024-03-08T02:11:47.465Z,98304.11
2024-03-08T02:14:15.670Z,98299.50
2024-03-08T02:16:42.779Z,98296.74
2024-03-08T02:19:11.234Z,98294.48
2024-03-08T02:21:39.340Z,98291.64
2024-03-08T02:24:07.812Z,98290.63
2024-03-08T02:26:35.157Z,98288.63
2024-03-08T02:29:03.446Z,98292.25
2024-03-08T02:31:30.592Z,98290.65
2024-03-08T02:33:57.666Z,98286.85
2024-03-08T02:36:25.089Z,98286.80
2024-03-08T02:38:52.236Z,98283.36
2024-03-08T02:41:19.584Z,98285.02
2024-03-08T02:43:46.951Z,98284.30
2024-03-08T02:46:14.008Z,98281.81
2024-03-08T02:48:41.388Z,98280.70
2024-03-08T02:51:08.677Z,98282.68
2024-03-08T02:53:36.735Z,98285.70
2024-03-08T02:56:03.967Z,98286.56
2024-03-08T02:58:31.185Z,98286.91
2024-03-08T03:00:59.067Z,98284.87
2024-03-08T03:03:26.263Z,98283.87
2024-03-08T03:05:53.487Z,98281.39
2024-03-08T03:08:20.905Z,98281.24
2024-03-08T03:10:48.118Z,98283.11
2024-03-08T03:13:18.075Z,98283.78
2024-03-08T03:15:47.495Z,98284.77
2024-03-08T03:18:14.945Z,98287.61
2024-03-08T03:20:42.631Z,98285.02
2024-03-08T03:23:10.653Z,98285.34
2024-03-08T03:25:40.372Z,98288.17
2024-03-08T03:28:09.594Z,98291.71
2024-03-08T03:30:36.798Z,98287.77
2024-03-08T03:33:09.077Z,98286.15
2024-03-08T03:35:38.330Z,98284.39
2024-03-08T03:38:10.542Z,98287.93
2024-03-08T03:40:40.540Z,98282.43
2024-03-08T03:43:09.105Z,98287.81
2024-03-08T03:45:37.821Z,98287.92
2024-03-08T03:48:12.861Z,98287.06
2024-03-08T03:50:41.125Z,98288.61
2024-03-08T03:53:10.230Z,98288.77
2024-03-08T03:55:41.315Z,98284.77
2024-03-08T03:58:11.794Z,98284.23
2024-03-08T04:00:39.775Z,98276.17
2024-03-08T04:03:07.696Z,98274.58
2024-03-08T04:05:34.915Z,98270.91
2024-03-08T04:08:02.333Z,98267.80
2024-03-08T04:10:29.678Z,98267.41
2024-03-08T04:12:58.243Z,98266.04
2024-03-08T04:15:25.733Z,98264.54
2024-03-08T04:17:52.964Z,98264.70
2024-03-08T04:20:20.164Z,98264.02
2024-03-08T04:22:50.878Z,98261.59
2024-03-08T04:25:18.460Z,98261.11
2024-03-08T04:27:45.987Z,98260.61
2024-03-08T04:30:13.866Z,98261.65
2024-03-08T04:32:43.052Z,98263.19
2024-03-08T04:35:10.549Z,98265.55
2024-03-08T04:37:38.002Z,98266.73
2024-03-08T04:40:05.760Z,98266.93
2024-03-08T04:42:36.581Z,98271.06
2024-03-08T04:45:03.878Z,98270.95
2024-03-08T04:47:31.413Z,98270.27
2024-03-08T04:49:59.768Z,98273.45
2024-03-08T04:52:27.531Z,98272.92
2024-03-08T04:54:54.701Z,98278.67
2024-03-08T04:57:22.040Z,98278.25
2024-03-08T04:59:49.840Z,98278.59
2024-03-08T05:02:18.700Z,98279.77
2024-03-08T05:04:45.998Z,98277.96
2024-03-08T05:07:13.251Z,98276.17
2024-03-08T05:09:41.963Z,98277.43
2024-03-08T05:12:09.447Z,98279.73
2024-03-08T05:14:36.749Z,98275.53
2024-03-08T05:17:04.027Z,98278.59
2024-03-08T05:19:35.126Z,98276.89
2024-03-08T05:22:02.789Z,98272.20
2024-03-08T05:24:31.614Z,98269.91
2024-03-08T05:27:00.936Z,98272.14
2024-03-08T05:29:28.243Z,98273.55
2024-03-08T05:31:55.560Z,98272.23
2024-03-08T05:34:23.626Z,98275.14
2024-03-08T05:36:52.135Z,98279.23
2024-03-08T05:39:21.559Z,98276.10
2024-03-08T05:41:49.559Z,98276.95
2024-03-08T05:44:20.327Z,98275.56
2024-03-08T05:46:50.231Z,98275.86
2024-03-08T05:49:17.453Z,98277.03
2024-03-08T05:51:44.880Z,98273.80
2024-03-08T05:54:15.629Z,98273.48
2024-03-08T05:56:45.516Z,98273.23
2024-03-08T05:59:13.815Z,98274.37
2024-03-08T06:01:43.215Z,98274.97
2024-03-08T06:04:13.341Z,98280.45
2024-03-08T06:06:41.572Z,98282.20
2024-03-08T06:09:19.291Z,98281.75
2024-03-08T06:11:46.738Z,98283.66
2024-03-08T06:14:13.932Z,98287.88
2024-03-08T06:16:41.042Z,98284.80
2024-03-08T06:19:08.315Z,98286.30
2024-03-08T06:21:35.460Z,98286.95
2024-03-08T06:24:04.641Z,98287.21
2024-03-08T06:26:32.916Z,98285.98
2024-03-08T06:29:01.205Z,98285.69
2024-03-08T06:31:28.429Z,98284.46
2024-03-08T06:33:59.710Z,98285.45
2024-03-08T06:36:27.024Z,98286.56
2024-03-08T06:38:54.471Z,98287.30
2024-03-08T06:41:21.811Z,98282.19
2024-03-08T06:43:50.473Z,98279.81
2024-03-08T06:46:17.902Z,98278.83
2024-03-08T06:48:47.284Z,98275.60
2024-03-08T06:51:16.124Z,98277.27
2024-03-08T06:53:43.932Z,98277.84
2024-03-08T06:56:11.185Z,98273.92
2024-03-08T06:58:38.811Z,98271.92
2024-03-08T07:01:09.303Z,98272.11
2024-03-08T07:03:37.104Z,98271.58
2024-03-08T07:06:04.916Z,98272.78
2024-03-08T07:08:34.276Z,98276.58
2024-03-08T07:11:01.585Z,98278.45
2024-03-08T07:13:31.049Z,98280.56
2024-03-08T07:15:58.501Z,98279.41
2024-03-08T07:18:25.750Z,98282.27
2024-03-08T07:20:53.316Z,98285.61
2024-03-08T07:23:38.811Z,98285.67
2024-03-08T07:26:06.189Z,98285.94
2024-03-08T07:28:33.343Z,98292.36
2024-03-08T07:31:18.943Z,98297.19
2024-03-08T07:33:46.538Z,98297.14
2024-03-08T07:36:13.911Z,98296.02
2024-03-08T07:38:41.151Z,98292.98
2024-03-08T07:41:08.377Z,98296.42
2024-03-08T07:43:35.683Z,98296.60
2024-03-08T07:46:02.717Z,98300.65
2024-03-08T07:48:29.974Z,98302.42
2024-03-08T07:50:57.426Z,98300.61
2024-03-08T07:53:28.146Z,98298.59
2024-03-08T07:55:55.633Z,98287.77
2024-03-08T07:58:23.061Z,98287.20
2024-03-08T08:00:50.434Z,98285.19
2024-03-08T08:03:19.563Z,98284.09
2024-03-08T08:05:47.434Z,98284.77
2024-03-08T08:08:14.714Z,98280.45
2024-03-08T08:10:41.909Z,98284.08
2024-03-08T08:13:09.294Z,98279.05
2024-03-08T08:15:36.453Z,98278.59
2024-03-08T08:18:07.583Z,98275.29
2024-03-08T08:20:35.311Z,98273.20
2024-03-08T08:23:02.837Z,98271.64
2024-03-08T08:25:30.745Z,98273.52
2024-03-08T08:27:58.178Z,98270.17
2024-03-08T08:30:25.486Z,98267.62
2024-03-08T08:32:52.688Z,98263.79
2024-03-08T08:35:21.323Z,98271.52
2024-03-08T08:37:48.670Z,98269.14
2024-03-08T08:40:16.822Z,98268.27
2024-03-08T08:42:44.598Z,98268.80
2024-03-08T08:45:16.780Z,98262.86
2024-03-08T08:47:46.827Z,98259.42
2024-03-08T08:50:14.814Z,98263.11
2024-03-08T08:52:45.214Z,98265.02
2024-03-08T08:55:16.390Z,98265.61
2024-03-08T08:57:45.775Z,98263.54
2024-03-08T09:00:16.743Z,98259.98
2024-03-08T09:02:44.731Z,98263.34
2024-03-08T09:05:13.220Z,98259.98
2024-03-08T09:07:40.966Z,98256.55
2024-03-08T09:12:41.279Z,98248.61
2024-03-08T09:15:14.760Z,98249.06
2024-03-08T09:17:43.975Z,98245.97
2024-03-08T09:20:12.271Z,98242.32
2024-03-08T09:22:39.633Z,98242.01
2024-03-08T09:25:08.921Z,98242.42
2024-03-08T09:27:39.409Z,98240.14
2024-03-08T09:30:08.663Z,98239.08
2024-03-08T09:32:36.609Z,98234.29
2024-03-08T09:35:04.371Z,98230.02
2024-03-08T09:37:32.349Z,98229.01
2024-03-08T09:40:00.751Z,98232.14
2024-03-08T09:42:28.474Z,98228.39
2024-03-08T09:44:55.694Z,98235.45
2024-03-08T09:47:26.532Z,98235.61
2024-03-08T09:49:54.724Z,98229.25
2024-03-08T09:52:22.307Z,98231.32
2024-03-08T09:54:51.087Z,98228.31
2024-03-08T09:57:21.191Z,98227.13
2024-03-08T09:59:49.668Z,98225.45
2024-03-08T10:02:17.676Z,98219.98
2024-03-08T10:04:48.008Z,98215.98
2024-03-08T10:07:15.755Z,98213.69
2024-03-08T10:09:48.807Z,98209.86
2024-03-08T10:12:17.473Z,98205.41
2024-03-08T10:14:45.358Z,98207.52
2024-03-08T10:17:12.374Z,98205.34
2024-03-08T10:19:40.533Z,98203.95
2024-03-08T10:22:08.628Z,98208.31
2024-03-08T10:24:38.146Z,98204.39
2024-03-08T10:27:06.934Z,98204.14
2024-03-08T10:29:34.667Z,98204.31
2024-03-08T10:32:03.634Z,98202.66
2024-03-08T10:34:31.390Z,98199.72
2024-03-08T10:37:05.938Z,98201.08
2024-03-08T10:39:37.711Z,98195.98
2024-03-08T10:42:06.571Z,98200.79
2024-03-08T10:44:45.421Z,98192.60
2024-03-08T10:47:31.768Z,98193.95
2024-03-08T10:50:07.874Z,98191.63
2024-03-08T10:52:36.424Z,98184.13
2024-03-08T10:55:04.156Z,98185.27
2024-03-08T10:57:32.698Z,98182.65
2024-03-08T11:00:00.481Z,98177.02
2024-03-08T11:02:28.909Z,98173.84
2024-03-08T11:04:58.331Z,98170.92
2024-03-08T11:07:29.244Z,98173.25
2024-03-08T11:09:57.962Z,98170.74
2024-03-08T11:12:38.864Z,98165.60
2024-03-08T11:15:15.499Z,98169.07
2024-03-08T11:17:52.968Z,98172.45
2024-03-08T11:20:24.134Z,98173.25
2024-03-08T11:22:53.693Z,98166.48
2024-03-08T11:25:43.291Z,98165.70
2024-03-08T11:28:20.642Z,98165.20
2024-03-08T11:31:03.098Z,98158.84
2024-03-08T11:33:31.806Z,98160.27
2024-03-08T11:36:18.304Z,98155.62
2024-03-08T11:38:45.938Z,98150.98
2024-03-08T11:41:19.101Z,98148.45
2024-03-08T11:43:51.184Z,98139.22
2024-03-08T11:46:19.538Z,98129.41
2024-03-08T11:48:49.555Z,98129.02
2024-03-08T11:51:19.618Z,98128.84
2024-03-08T11:53:48.494Z,98134.41
2024-03-08T11:56:17.147Z,98134.02
2024-03-08T11:58:58.988Z,98127.22
2024-03-08T12:01:26.684Z,98123.02
2024-03-08T12:04:01.039Z,98120.02
2024-03-08T12:06:38.153Z,98117.95
2024-03-08T12:09:05.374Z,98119.48
2024-03-08T12:11:33.966Z,98117.42
2024-03-08T12:14:02.870Z,98115.73
2024-03-08T12:16:30.637Z,98109.09
2024-03-08T12:18:57.921Z,98112.39
2024-03-08T12:21:27.517Z,98110.27
2024-03-08T12:24:12.710Z,98106.59
2024-03-08T12:26:41.602Z,98102.79
2024-03-08T12:29:29.401Z,98111.03
2024-03-08T12:32:00.134Z,98110.88
2024-03-08T12:34:28.773Z,98110.56
2024-03-08T12:36:56.663Z,98102.42
2024-03-08T12:39:28.809Z,98103.34
2024-03-08T12:41:58.766Z,98099.23
2024-03-08T12:44:26.637Z,98102.14
2024-03-08T12:46:55.532Z,98100.91
2024-03-08T12:49:24.080Z,98098.89
2024-03-08T12:51:51.567Z,98099.89
2024-03-08T12:54:18.644Z,98093.95
2024-03-08T12:56:45.735Z,98089.48
2024-03-08T12:59:13.713Z,98086.65
2024-03-08T13:01:41.785Z,98088.20
2024-03-08T13:04:12.759Z,98086.30
2024-03-08T13:06:40.222Z,98081.98
2024-03-08T13:09:07.261Z,98081.13
2024-03-08T13:11:38.266Z,98082.43
2024-03-08T13:14:09.196Z,98082.95
2024-03-08T13:16:36.629Z,98080.21
2024-03-08T13:19:03.985Z,98078.38
2024-03-08T13:21:31.796Z,98077.07
2024-03-08T13:24:01.808Z,98072.49
2024-03-08T13:26:34.587Z,98071.27
2024-03-08T13:29:02.058Z,98064.99
2024-03-08T13:31:29.784Z,98068.95
2024-03-08T13:33:59.996Z,98066.90
2024-03-08T13:36:30.867Z,98065.70
2024-03-08T13:39:00.855Z,98064.19
2024-03-08T13:41:30.287Z,98058.14
2024-03-08T13:43:58.952Z,98059.42
2024-03-08T13:46:26.256Z,98056.88
2024-03-08T13:48:56.331Z,98053.23
2024-03-08T13:51:24.128Z,98050.87
2024-03-08T13:53:51.237Z,98050.65
2024-03-08T13:56:18.717Z,98049.13
2024-03-08T13:58:46.712Z,98047.15
2024-03-08T14:01:14.118Z,98048.81
2024-03-08T14:03:44.009Z,98044.17
2024-03-08T14:08:52.948Z,98041.10
2024-03-08T14:11:20.819Z,98038.12
2024-03-08T14:13:49.128Z,98038.88
2024-03-08T14:16:19.440Z,98037.05
2024-03-08T14:18:46.586Z,98033.44
2024-03-08T14:21:13.789Z,98029.65
2024-03-08T14:23:44.450Z,98031.44
2024-03-08T14:26:12.766Z,98024.05
2024-03-08T14:28:40.651Z,98020.80
2024-03-08T14:31:12.685Z,98021.03
2024-03-08T14:33:39.887Z,98022.94
2024-03-08T14:36:07.538Z,98020.38
2024-03-08T14:38:36.471Z,98024.24
2024-03-08T14:41:05.908Z,98024.14
2024-03-08T14:43:33.686Z,98026.23
2024-03-08T14:46:01.059Z,98026.63
2024-03-08T14:48:28.693Z,98020.70
2024-03-08T14:50:55.919Z,98016.24
2024-03-08T14:53:23.166Z,98017.63
2024-03-08T14:55:50.469Z,98013.50
2024-03-08T14:58:17.794Z,98012.14
2024-03-08T15:00:45.326Z,98013.46
2024-03-08T15:03:18.336Z,98013.77
2024-03-08T15:05:50.165Z,98017.33
2024-03-08T15:08:21.659Z,98015.18
2024-03-08T15:10:55.984Z,98017.45
2024-03-08T15:13:24.734Z,98020.39
2024-03-08T15:15:59.166Z,98017.02
2024-03-08T15:18:29.680Z,98014.05
2024-03-08T15:20:56.908Z,98015.96
2024-03-08T15:23:24.101Z,98016.22
2024-03-08T15:25:51.374Z,98018.20
2024-03-08T15:28:21.934Z,98015.73
2024-03-08T15:30:55.626Z,98016.73
2024-03-08T15:33:28.803Z,98011.10
2024-03-08T15:36:09.819Z,98011.44
2024-03-08T15:38:40.094Z,98011.02
2024-03-08T15:41:11.845Z,98014.59
2024-03-08T15:43:39.106Z,98011.59
2024-03-08T15:46:06.326Z,98008.98
2024-03-08T15:48:34.337Z,98009.23
2024-03-08T15:51:04.202Z,98009.19
2024-03-08T15:53:35.147Z,98013.45
2024-03-08T15:56:04.296Z,98011.97
2024-03-08T15:58:31.906Z,98010.45
2024-03-08T16:01:00.639Z,98005.54
2024-03-08T16:03:32.419Z,98004.34
2024-03-08T16:06:01.024Z,98005.56
2024-03-08T16:08:28.691Z,98006.48
2024-03-08T16:10:57.058Z,98008.65
2024-03-08T16:13:26.244Z,98014.02
2024-03-08T16:15:59.807Z,98013.20
2024-03-08T16:18:27.148Z,98014.20
2024-03-08T16:20:55.893Z,98014.48
2024-03-08T16:23:24.422Z,98015.65
2024-03-08T16:25:52.291Z,98018.65
2024-03-08T16:28:21.598Z,98019.32
2024-03-08T16:30:55.634Z,98017.98
2024-03-08T16:33:23.897Z,98012.98
2024-03-08T16:35:55.149Z,98009.09
2024-03-08T16:38:22.383Z,98008.88
2024-03-08T16:41:02.240Z,98009.14
2024-03-08T16:43:29.675Z,98008.23
2024-03-08T16:45:57.565Z,98008.73
2024-03-08T16:48:25.642Z,98009.15
2024-03-08T16:50:56.060Z,98005.55
2024-03-08T16:53:23.370Z,98005.15
2024-03-08T16:55:53.140Z,98007.39
2024-03-08T16:58:22.970Z,98010.14
2024-03-08T17:00:50.593Z,98010.95
2024-03-08T17:03:18.255Z,98011.83
2024-03-08T17:05:55.722Z,98011.34
2024-03-08T17:08:24.114Z,98014.39
2024-03-08T17:10:51.878Z,98013.88
2024-03-08T17:13:20.121Z,98012.98
2024-03-08T17:15:50.101Z,98010.64
2024-03-08T17:18:17.744Z,98011.84
2024-03-08T17:20:45.854Z,98009.40
2024-03-08T17:23:15.290Z,98010.05
2024-03-08T17:25:44.024Z,98008.21
2024-03-08T17:28:13.892Z,98008.73
2024-03-08T17:30:42.611Z,98008.81
2024-03-08T17:33:16.620Z,98003.02
2024-03-08T17:35:46.297Z,98005.92
2024-03-08T17:38:20.536Z,98006.48
2024-03-08T17:40:49.928Z,98004.19
2024-03-08T17:43:22.825Z,98004.79
2024-03-08T17:45:50.862Z,98008.66
2024-03-08T17:48:21.211Z,98011.52
2024-03-08T17:50:55.670Z,98008.38
2024-03-08T17:53:23.035Z,98011.43
2024-03-08T17:55:52.556Z,98010.27
2024-03-08T17:58:21.746Z,98011.77
2024-03-08T18:00:53.243Z,98009.27
2024-03-08T18:03:26.179Z,98008.99
2024-03-08T18:05:53.256Z,98009.95
2024-03-08T18:08:20.536Z,98006.98
2024-03-08T18:10:50.753Z,98004.14
2024-03-08T18:13:18.017Z,97999.60
2024-03-08T18:15:49.893Z,98000.73
2024-03-08T18:18:18.913Z,97997.19
2024-03-08T18:20:49.402Z,97994.66
2024-03-08T18:23:18.799Z,97992.39
2024-03-08T18:25:46.630Z,97993.85
2024-03-08T18:28:14.852Z,97991.58
2024-03-08T18:30:45.025Z,97993.08
2024-03-08T18:33:15.947Z,97987.92
2024-03-08T18:35:45.683Z,97991.70
2024-03-08T18:38:13.469Z,97987.91
2024-03-08T18:40:46.802Z,97988.38
2024-03-08T18:43:17.152Z,97990.17
2024-03-08T18:45:44.238Z,97990.24
2024-03-08T18:48:13.278Z,97990.83
2024-03-08T18:50:41.213Z,97991.41
2024-03-08T18:53:09.356Z,97989.66
2024-03-08T18:55:36.763Z,97988.20
2024-03-08T18:58:04.231Z,97991.52
2024-03-08T19:00:31.954Z,97990.42
2024-03-08T19:03:18.418Z,97987.61
2024-03-08T19:05:47.599Z,97993.92
2024-03-08T19:08:15.836Z,97991.13
2024-03-08T19:10:44.574Z,97993.42
2024-03-08T19:13:13.540Z,97993.13
2024-03-08T19:15:41.047Z,97993.59
2024-03-08T19:18:12.828Z,97990.61
2024-03-08T19:20:41.115Z,97991.17
2024-03-08T19:23:11.125Z,97990.08
2024-03-08T19:25:43.800Z,97989.40
2024-03-08T19:28:16.003Z,97991.44
2024-03-08T19:30:43.682Z,97990.52
2024-03-08T19:33:14.346Z,97987.98
2024-03-08T19:35:42.990Z,97988.07
2024-03-08T19:38:13.846Z,97991.19
2024-03-08T19:40:46.000Z,97986.80
2024-03-08T19:43:17.452Z,97983.59
2024-03-08T19:45:45.145Z,97982.77
2024-03-08T19:48:18.546Z,97979.40
2024-03-08T19:50:47.487Z,97979.72
2024-03-08T19:53:18.594Z,97978.20
2024-03-08T19:55:54.940Z,97978.44
2024-03-08T19:58:23.563Z,97974.90
2024-03-08T20:00:51.438Z,97972.86
2024-03-08T20:03:23.632Z,97972.83
2024-03-08T20:05:55.743Z,97975.03
2024-03-08T20:08:25.519Z,97974.71
2024-03-08T20:10:54.425Z,97974.14
2024-03-08T20:13:21.728Z,97973.05
2024-03-08T20:15:54.775Z,97974.33
2024-03-08T20:18:27.985Z,97974.98
2024-03-08T20:20:56.954Z,97971.53
2024-03-08T20:23:27.799Z,97969.35
2024-03-08T20:25:55.139Z,97971.59
2024-03-08T20:28:22.544Z,97971.23
2024-03-08T20:30:49.846Z,97968.98
2024-03-08T20:33:17.675Z,97965.20
2024-03-08T20:35:51.654Z,97962.65
2024-03-08T20:38:22.964Z,97963.34
2024-03-08T20:40:52.203Z,97959.26
2024-03-08T20:43:22.474Z,97957.63
2024-03-08T20:45:51.100Z,97957.52
2024-03-08T20:48:22.365Z,97953.66
2024-03-08T20:50:50.969Z,97955.73
2024-03-08T20:53:18.845Z,97955.63
2024-03-08T20:55:46.230Z,97949.58
2024-03-08T20:58:14.692Z,97953.04
2024-03-08T21:00:42.249Z,97951.52
2024-03-08T21:03:15.542Z,97953.42
2024-03-08T21:05:51.630Z,97950.10
2024-03-08T21:08:29.100Z,97946.05
2024-03-08T21:10:58.326Z,97940.61
2024-03-08T21:13:26.665Z,97937.38
2024-03-08T21:15:57.253Z,97935.86
2024-03-08T21:18:26.879Z,97934.89
2024-03-08T21:20:54.652Z,97936.21
2024-03-08T21:23:22.368Z,97937.70
2024-03-08T21:25:50.804Z,97930.34
2024-03-08T21:28:20.516Z,97928.67
2024-03-08T21:30:47.825Z,97927.80
2024-03-08T21:33:15.526Z,97922.50
2024-03-08T21:35:42.899Z,97922.15
2024-03-08T21:38:12.450Z,97917.08
2024-03-08T21:43:13.365Z,97912.33
2024-03-08T21:45:41.184Z,97913.45
2024-03-08T21:48:10.418Z,97909.88
2024-03-08T21:50:37.704Z,97908.86
2024-03-08T21:53:14.290Z,97906.84
2024-03-08T21:55:49.226Z,97906.39
2024-03-08T21:58:16.417Z,97905.08
2024-03-08T22:00:44.087Z,97905.91
2024-03-08T22:03:12.576Z,97904.02
2024-03-08T22:05:39.672Z,97903.39
2024-03-08T22:08:07.597Z,97902.73
2024-03-08T22:10:34.696Z,97901.39
2024-03-08T22:13:01.837Z,97900.41
2024-03-08T22:15:31.312Z,97899.38
2024-03-08T22:17:58.602Z,97895.11
2024-03-08T22:20:33.406Z,97896.82
2024-03-08T22:23:03.974Z,97897.53
2024-03-08T22:25:32.503Z,97894.13
2024-03-08T22:28:00.468Z,97887.34
2024-03-08T22:30:27.991Z,97885.65
2024-03-08T22:32:56.071Z,97882.92
2024-03-08T22:35:26.136Z,97882.20
2024-03-08T22:37:55.544Z,97882.66
2024-03-08T22:40:26.932Z,97881.10
2024-03-08T22:42:54.753Z,97877.48
2024-03-08T22:45:22.443Z,97874.06
2024-03-08T22:47:49.985Z,97869.64
2024-03-08T22:50:19.026Z,97869.83
2024-03-08T22:52:47.756Z,97864.36
2024-03-08T22:55:21.363Z,97863.80
2024-03-08T22:57:50.610Z,97857.27
2024-03-08T23:00:39.002Z,97853.98
2024-03-08T23:03:14.325Z,97855.80
2024-03-08T23:05:44.250Z,97853.73
2024-03-08T23:08:13.023Z,97852.92
2024-03-08T23:10:41.422Z,97852.23
2024-03-08T23:13:11.213Z,97855.95
2024-03-08T23:15:43.179Z,97858.28
2024-03-08T23:18:13.802Z,97856.54
2024-03-08T23:20:45.169Z,97859.21
2024-03-08T23:23:14.464Z,97856.45
2024-03-08T23:25:42.515Z,97855.23
2024-03-08T23:28:13.773Z,97854.02
2024-03-08T23:30:42.323Z,97854.84
2024-03-08T23:33:11.038Z,97854.31
2024-03-08T23:35:39.991Z,97852.42
2024-03-08T23:38:09.526Z,97850.56
2024-03-08T23:40:37.774Z,97849.56
2024-03-08T23:43:07.064Z,97847.86
2024-03-08T23:45:35.806Z,97845.14
2024-03-08T23:48:03.352Z,97844.78
2024-03-08T23:50:32.509Z,97845.98
2024-03-08T23:53:02.336Z,97845.61
2024-03-08T23:55:34.340Z,97844.23
2024-03-08T23:58:10.811Z,97840.44
